Impacts TAF Board INFO
FOR SITUATIONAL AWARENESS. NOT TO BE USED FOR FLIGHT PLANNING PURPOSES.
IDs:

KSEA - Seattle-Tacoma Intl, WA, US

Issued at 1140 UTC 22 Feb 2018
Updated at 1226 UTC 22 Feb 2018
Potential Impact None Slight Moderate High
Time<<23/13Z 23/14Z 23/15Z 23/16Z 23/17Z 23/18Z 23/19Z 23/20Z 23/21Z 23/22Z 23/23Z 24/00Z 24/01Z
Type PRVL PRVL PRVL PRVL PRVL
VIS >6 >6 >6 >6 >6
CIG 200 200 200 100 100
Cover BKN BKN BKN OVC OVC
FltCat VFR VFR VFR VFR VFR
WX -- -- -- -- --
WDir 150 150 150 180 180
WSpd 6 6 6 8 8
WGst -- -- -- -- --

Raw TAF
KSEA 221140Z 2212/2318 01010KT P6SM SCT015 BKN050
  FM221700 36010KT P6SM FEW020 SCT050 SCT200
  FM230200 VRB05KT P6SM SCT200
  FM231000 15006KT P6SM BKN200
  FM231600 18008KT P6SM BKN100 OVC200


METAR Board
Radar Display
Forecast Discussion

FOR SITUATIONAL AWARENESS. NOT TO BE USED FOR FLIGHT PLANNING PURPOSES.